Flight Track Log - Related Links

Times and Time Zones

All times are in EDT time to prevent confusion due to time zone crossing. See the KLM641 flight status page for this flight to view local times or setup timezone preferences in your user account.

Time Position Orientation Groundspeed Altitude Reporting Facility
EDT Latitude Longitude Course Direction KTS MPH feet Rate Location/Type
Sat 07:35:32 AM 52.3528 4.4958 293° West  Level FlightAware Approximate
Sat 07:36:32 AM 52.3907 4.3252 293° West  Level FlightAware Approximate
Sat 07:37:32 AM 52.4261 4.1530 293° West  Level FlightAware Approximate
Sat 07:38:32 AM 52.4699 3.9708 293° West  Level FlightAware Approximate
Sat 07:39:32 AM 52.5151 3.7894 293° West  Level FlightAware Approximate
Sat 07:40:32 AM 52.5547 3.6042 294° West  Level FlightAware Approximate
Sat 07:41:32 AM 52.5933 3.4183 294° West  Level FlightAware Approximate
Sat 07:42:32 AM 52.6316 3.2321 294° West  Level FlightAware Approximate
Sat 07:43:32 AM 52.6697 3.0456 295° West  Level FlightAware Approximate
Sat 07:44:32 AM 52.7075 2.8587 296° West  Level FlightAware Approximate
Sat 07:45:32 AM 52.7449 2.6715 297° West  Level FlightAware Approximate
Sat 07:46:32 AM 52.7821 2.4840 298° West  Level FlightAware Approximate
Sat 07:47:32 AM 52.8190 2.2962 300° West  Level FlightAware Approximate
Sat 07:48:32 AM 52.8555 2.1081 304° West  Level FlightAware Approximate
Sat 07:49:32 AM 52.8918 1.9196 311° West  Level FlightAware Approximate
Sat 07:50:32 AM 52.9278 1.7309 327° Northwest  Level FlightAware Approximate
Sat 07:51:32 AM 52.9635 1.5418 11° North  Level FlightAware Approximate
Sat 07:52:32 AM 52.9989 1.3524 62° Northeast  Level FlightAware Approximate
Sat 07:53:32 AM 53.0339 1.1627 81° East  Level FlightAware Approximate
Sat 07:54:32 AM 53.0687 0.9727 89° East  Level FlightAware Approximate
Sat 07:55:32 AM 53.1032 0.7824 94° East  Level FlightAware Approximate
Sat 07:56:32 AM 53.1373 0.5918 96° East  Level FlightAware Approximate
Sat 07:57:32 AM 53.1712 0.4008 98° East  Level FlightAware Approximate
Sat 07:58:32 AM 53.2048 0.2096 99° East  Level FlightAware Approximate
Sat 07:59:32 AM 53.2380 0.0181 100° East  Level FlightAware Approximate
Sat 08:00:32 AM 53.2710 -0.1737 100° East  Level FlightAware Approximate
Sat 08:01:32 AM 53.3036 -0.3658 101° East  Level FlightAware Approximate
Sat 08:02:32 AM 53.3359 -0.5582 101° East  Level FlightAware Approximate
Sat 08:03:32 AM 53.3747 -0.7437 101° East  Level FlightAware Approximate
Sat 08:04:32 AM 53.4065 -0.9367 102° East  Level FlightAware Approximate
Sat 08:05:32 AM 53.4380 -1.1299 102° East  Level FlightAware Approximate
Sat 08:06:32 AM 53.4692 -1.3234 102° East  Level FlightAware Approximate
Sat 08:07:32 AM 53.5001 -1.5172 102° East  Level FlightAware Approximate
Sat 08:08:32 AM 53.5192 -1.7153 102° East  Level FlightAware Approximate
Sat 08:09:32 AM 53.5496 -1.9095 102° East  Level FlightAware Approximate
Sat 08:11:28 AM 53.0709 1.5754 279° West 477 549 33,400  Level FlightAware ADS-B
Sat 08:12:04 AM 53.0831 1.4415 279° West 481 554 33,900 529 Climbing FlightAware ADS-B
Sat 08:12:36 AM 53.0935 1.3271 278° West 479 551 34,000 97 Climbing FlightAware ADS-B
Sat 08:13:06 AM 53.1033 1.2174 278° West 479 551 34,000  Level FlightAware ADS-B
Sat 08:13:39 AM 53.1138 1.0968 278° West 479 551 34,000  Level FlightAware ADS-B
Sat 08:14:09 AM 53.1235 0.9872 278° West 478 550 34,000  Level FlightAware ADS-B
Sat 08:14:40 AM 53.1331 0.8777 278° West 478 550 34,000  Level FlightAware ADS-B
Sat 08:15:11 AM 53.1432 0.7625 278° West 477 549 34,000  Level FlightAware ADS-B
Sat 08:15:43 AM 53.1533 0.6475 278° West 475 547 34,000  Level FlightAware ADS-B
Sat 08:16:16 AM 53.1636 0.5315 279° West 474 545 34,000  Level FlightAware ADS-B
Sat 08:16:47 AM 53.1736 0.4199 279° West 473 544 34,000  Level FlightAware ADS-B
Sat 08:17:17 AM 53.1835 0.3106 279° West 473 544 34,000  Level FlightAware ADS-B
Sat 08:17:49 AM 53.1939 0.1956 279° West 473 544 34,000  Level FlightAware ADS-B
Sat 08:18:19 AM 53.2037 0.0865 278° West 472 543 34,000  Level FlightAware ADS-B
Sat 08:18:52 AM 53.2141 -0.0304 278° West 471 542 34,000  Level FlightAware ADS-B
Sat 08:19:24 AM 53.2241 -0.1449 278° West 470 541 34,000  Level FlightAware ADS-B
Sat 08:19:55 AM 53.2338 -0.2571 278° West 469 540 34,000  Level FlightAware ADS-B
Sat 08:20:26 AM 53.2430 -0.3661 278° West 467 537 34,000  Level FlightAware ADS-B
Sat 08:20:56 AM 53.2522 -0.4740 278° West 467 537 34,000  Level FlightAware ADS-B
Sat 08:21:51 AM 53.2688 -0.6679 278° West 466 536 34,000  Level FlightAware ADS-B
Sat 08:22:38 AM 53.2833 -0.8336 278° West 465 535 34,000  Level FlightAware ADS-B
Sat 08:23:11 AM 53.2936 -0.9524 278° West 464 534 34,000  Level FlightAware ADS-B
Sat 08:23:41 AM 53.3029 -1.0583 278° West 464 534 34,000  Level FlightAware ADS-B
Sat 08:24:17 AM 53.3138 -1.1827 279° West 464 534 34,000  Level FlightAware ADS-B
Sat 08:24:52 AM 53.3253 -1.3104 278° West 465 535 34,000  Level FlightAware ADS-B
Sat 08:26:09 AM 53.3486 -1.5811 278° West 464 534 34,000  Level FlightAware ADS-B
Sat 08:26:39 AM 53.3575 -1.6873 278° West 464 534 34,000  Level FlightAware ADS-B
Sat 08:27:13 AM 53.3669 -1.8072 278° West 463 533 34,000  Level FlightAware ADS-B
Sat 08:27:47 AM 53.3766 -1.9306 278° West 464 534 34,000  Level FlightAware ADS-B
Sat 08:28:18 AM 53.3851 -2.0388 277° West 466 536 34,000  Level FlightAware ADS-B
Sat 08:28:49 AM 53.3936 -2.1488 277° West 467 537 34,000  Level FlightAware ADS-B
Sat 08:30:15 AM 53.4159 -2.4560 277° West 461 531 34,000  Level FlightAware ADS-B
Sat 08:30:45 AM 53.4237 -2.5627 277° West 460 529 34,000  Level FlightAware ADS-B
Sat 08:31:16 AM 53.4314 -2.6701 277° West 460 529 34,000  Level FlightAware ADS-B
Sat 08:31:49 AM 53.4399 -2.7891 277° West 459 528 34,000  Level FlightAware ADS-B
Sat 08:32:24 AM 53.4487 -2.9098 277° West 461 531 34,000  Level FlightAware ADS-B
Sat 08:33:39 AM 53.4668 -3.1757 280° West 459 528 34,000 38 Level FlightAware ADS-B
Sat 08:41:32 AM 53.9259 -4.5407 277° West  Level FlightAware Approximate
Sat 08:42:32 AM 53.9511 -4.7418 276° West  Level FlightAware Approximate
Sat 08:43:32 AM 53.9770 -4.9428 276° West  Level FlightAware Approximate
Sat 08:44:32 AM 54.0025 -5.1440 276° West  Level FlightAware Approximate
Sat 08:45:32 AM 54.0277 -5.3455 276° West  Level FlightAware Approximate
Sat 08:46:32 AM 54.0526 -5.5472 276° West  Level FlightAware Approximate
Sat 08:47:32 AM 54.0771 -5.7492 275° West  Level FlightAware Approximate
Sat 08:48:32 AM 54.1002 -5.9517 275° West  Level FlightAware Approximate
Sat 08:49:32 AM 54.1241 -6.1542 275° West  Level FlightAware Approximate
Sat 08:50:32 AM 54.1476 -6.3568 274° West  Level FlightAware Approximate
Sat 08:51:32 AM 54.1708 -6.5597 274° West  Level FlightAware Approximate
Sat 08:52:32 AM 54.1937 -6.7628 274° West  Level FlightAware Approximate
Sat 08:53:32 AM 54.2162 -6.9661 274° West  Level FlightAware Approximate
Sat 08:54:32 AM 54.2383 -7.1697 273° West  Level FlightAware Approximate
Sat 08:55:32 AM 54.2688 -7.3701 273° West  Level FlightAware Approximate
Sat 08:56:32 AM 54.2900 -7.5742 273° West  Level FlightAware Approximate
Sat 08:57:32 AM 54.3110 -7.7785 272° West  Level FlightAware Approximate
Sat 08:58:32 AM 54.3316 -7.9830 272° West  Level FlightAware Approximate
Sat 08:59:32 AM 54.3518 -8.1877 272° West  Level FlightAware Approximate
Sat 09:00:32 AM 54.3717 -8.3926 272° West  Level FlightAware Approximate
Sat 09:01:32 AM 54.3913 -8.5977 271° West  Level FlightAware Approximate
Sat 09:02:32 AM 54.4105 -8.8030 271° West  Level FlightAware Approximate
Sat 09:03:32 AM 54.4293 -9.0084 271° West  Level FlightAware Approximate
Sat 09:04:32 AM 54.4478 -9.2141 270° West  Level FlightAware Approximate
Sat 09:05:32 AM 54.4660 -9.4200 270° West  Level FlightAware Approximate
Sat 09:06:32 AM 54.4838 -9.6260 270° West  Level FlightAware Approximate
Sat 09:07:32 AM 54.5013 -9.8322 269° West  Level FlightAware Approximate
Sat 09:08:32 AM 54.5184 -10.0386 269° West  Level FlightAware Approximate
Sat 09:09:32 AM 54.5351 -10.2451 269° West  Level FlightAware Approximate
Sat 09:10:32 AM 54.5481 -10.4518 268° West  Level FlightAware Approximate
Sat 09:11:32 AM 54.5642 -10.6587 268° West  Level FlightAware Approximate
Sat 09:12:32 AM 54.5800 -10.8657 268° West  Level FlightAware Approximate
Sat 09:13:32 AM 54.5954 -11.0728 267° West  Level FlightAware Approximate
Sat 09:14:32 AM 54.6105 -11.2802 267° West  Level FlightAware Approximate
Sat 09:15:32 AM 54.6252 -11.4876 266° West  Level FlightAware Approximate
Sat 09:16:32 AM 54.6395 -11.6953 266° West  Level FlightAware Approximate
Sat 09:17:32 AM 54.6535 -11.9031 265° West  Level FlightAware Approximate
Sat 09:18:32 AM 54.6672 -12.1110 265° West  Level FlightAware Approximate
Sat 09:19:32 AM 54.6805 -12.3190 264° West  Level FlightAware Approximate
Sat 09:20:32 AM 54.6934 -12.5272 264° West  Level FlightAware Approximate
Sat 09:21:32 AM 54.7060 -12.7355 263° West  Level FlightAware Approximate
Sat 09:22:32 AM 54.7182 -12.9440 263° West  Level FlightAware Approximate
Sat 09:23:32 AM 54.7300 -13.1525 262° West  Level FlightAware Approximate
Sat 09:24:32 AM 54.7415 -13.3612 262° West  Level FlightAware Approximate
Sat 09:25:32 AM 54.7527 -13.5701 261° West  Level FlightAware Approximate
Sat 09:26:32 AM 54.7634 -13.7790 261° West  Level FlightAware Approximate
Sat 09:27:32 AM 54.7738 -13.9880 260° West  Level FlightAware Approximate
Sat 09:28:32 AM 54.7839 -14.1971 259° West  Level FlightAware Approximate
Sat 09:29:32 AM 54.7936 -14.4064 259° West  Level FlightAware Approximate
Sat 09:30:32 AM 54.8030 -14.6157 258° West  Level FlightAware Approximate
Sat 09:31:32 AM 54.8119 -14.8251 257° West  Level FlightAware Approximate
Sat 09:32:32 AM 54.8205 -15.0346 256° West  Level FlightAware Approximate
Sat 09:33:32 AM 54.8288 -15.2443 255° West  Level FlightAware Approximate
Sat 09:34:32 AM 54.8367 -15.4539 254° West  Level FlightAware Approximate
Sat 09:35:32 AM 54.8442 -15.6637 253° West  Level FlightAware Approximate
Sat 09:36:32 AM 54.8514 -15.8736 252° West  Level FlightAware Approximate
Sat 09:37:32 AM 54.8582 -16.0835 251° West  Level FlightAware Approximate
Sat 09:38:32 AM 54.8647 -16.2935 250° West  Level FlightAware Approximate
Sat 09:39:32 AM 54.8720 -16.5033 248° West  Level FlightAware Approximate
Sat 09:40:32 AM 54.8777 -16.7134 247° West  Level FlightAware Approximate
Sat 09:41:32 AM 54.8831 -16.9236 245° Southwest  Level FlightAware Approximate
Sat 09:42:32 AM 54.8880 -17.1339 243° Southwest  Level FlightAware Approximate
Sat 09:43:32 AM 54.8927 -17.3442 241° Southwest  Level FlightAware Approximate
Sat 09:44:32 AM 54.8969 -17.5545 239° Southwest  Level FlightAware Approximate
Sat 09:45:32 AM 54.9008 -17.7649 236° Southwest  Level FlightAware Approximate
Sat 09:46:32 AM 54.9043 -17.9753 233° Southwest  Level FlightAware Approximate
Sat 09:47:32 AM 54.9075 -18.1857 230° Southwest  Level FlightAware Approximate
Sat 09:48:32 AM 54.9103 -18.3962 226° Southwest  Level FlightAware Approximate
Sat 09:49:32 AM 54.9127 -18.6067 222° Southwest  Level FlightAware Approximate
Sat 09:50:32 AM 54.9147 -18.8172 217° Southwest  Level FlightAware Approximate
Sat 09:51:32 AM 54.9165 -19.0278 212° Southwest  Level FlightAware Approximate
Sat 09:52:00 AM 54.0000 -20.0000 274° West 469 540 37,000  Level ETMS Enhanced Traffic Management System
Sat 09:52:32 AM 54.9178 -19.2384 240° Southwest  Level FlightAware Approximate
Sat 09:53:32 AM 54.9188 -19.4489 237° Southwest  Level FlightAware Approximate
Sat 09:54:32 AM 54.9194 -19.6595 234° Southwest  Level FlightAware Approximate
Sat 09:55:32 AM 54.9196 -19.8701 231° Southwest  Level FlightAware Approximate
Sat 09:56:32 AM 54.9195 -20.0807 228° Southwest  Level FlightAware Approximate
Sat 09:59:32 AM 54.0578 -21.6710 273° West 469 540 37,000  Level FlightAware Transoceanic
Sat 10:00:32 AM 54.0638 -21.8931 273° West 469 540 37,000  Level FlightAware Transoceanic
Sat 10:01:32 AM 54.0693 -22.1153 272° West 469 540 37,000  Level FlightAware Transoceanic
Sat 10:02:32 AM 54.0744 -22.3376 272° West 469 540 37,000  Level FlightAware Transoceanic
Sat 10:03:32 AM 54.0791 -22.5599 272° West 469 540 37,000  Level FlightAware Transoceanic
Sat 10:04:32 AM 54.0834 -22.7822 272° West 469 540 37,000  Level FlightAware Transoceanic
Sat 10:05:32 AM 54.0873 -23.0046 272° West 469 540 37,000  Level FlightAware Transoceanic
Sat 10:06:32 AM 54.0908 -23.2271 271° West 469 540 37,000  Level FlightAware Transoceanic
Sat 10:07:32 AM 54.0938 -23.4495 271° West 469 540 37,000  Level FlightAware Transoceanic
Sat 10:08:32 AM 54.0965 -23.6720 271° West 469 540 37,000  Level FlightAware Transoceanic
Sat 10:09:32 AM 54.0988 -23.8946 271° West 469 540 37,000  Level FlightAware Transoceanic
Sat 10:10:32 AM 54.1006 -24.1171 271° West 469 540 37,000  Level FlightAware Transoceanic
Sat 10:11:32 AM 54.1020 -24.3397 271° West 469 540 37,000  Level FlightAware Transoceanic
Sat 10:12:32 AM 54.1030 -24.5622 270° West 469 540 37,000  Level FlightAware Transoceanic
Sat 10:13:32 AM 54.1036 -24.7848 270° West 469 540 37,000  Level FlightAware Transoceanic
Sat 10:14:32 AM 54.1038 -25.0074 270° West 469 540 37,000  Level FlightAware Transoceanic
Sat 10:15:32 AM 54.1036 -25.2300 270° West 469 540 37,000  Level FlightAware Transoceanic
Sat 10:16:32 AM 54.1030 -25.4526 270° West 469 540 37,000  Level FlightAware Transoceanic
Sat 10:17:32 AM 54.1019 -25.6752 269° West 469 540 37,000  Level FlightAware Transoceanic
Sat 10:18:32 AM 54.1005 -25.8977 269° West 469 540 37,000  Level FlightAware Transoceanic
Sat 10:19:32 AM 54.0986 -26.1203 269° West 469 540 37,000  Level FlightAware Transoceanic
Sat 10:20:32 AM 54.0963 -26.3428 269° West 469 540 37,000  Level FlightAware Transoceanic
Sat 10:21:32 AM 54.0937 -26.5653 269° West 469 540 37,000  Level FlightAware Transoceanic
Sat 10:22:32 AM 54.0906 -26.7878 269° West 469 540 37,000  Level FlightAware Transoceanic
Sat 10:23:32 AM 54.0871 -27.0102 268° West 469 540 37,000  Level FlightAware Transoceanic
Sat 10:24:32 AM 54.0831 -27.2326 268° West 469 540 37,000  Level FlightAware Transoceanic
Sat 10:25:32 AM 54.0788 -27.4550 268° West 469 540 37,000  Level FlightAware Transoceanic
Sat 10:26:32 AM 54.0741 -27.6773 268° West 469 540 37,000  Level FlightAware Transoceanic
Sat 10:27:32 AM 54.0690 -27.8995 268° West 469 540 37,000  Level FlightAware Transoceanic
Sat 10:28:32 AM 54.0634 -28.1217 267° West 469 540 37,000  Level FlightAware Transoceanic
Sat 10:29:32 AM 54.0574 -28.3438 267° West 469 540 37,000  Level FlightAware Transoceanic
Sat 10:30:32 AM 54.0511 -28.5659 267° West 469 540 37,000  Level FlightAware Transoceanic
Sat 10:31:32 AM 54.0443 -28.7879 267° West 469 540 37,000  Level FlightAware Transoceanic
Sat 10:32:32 AM 54.0371 -29.0098 267° West 469 540 37,000  Level FlightAware Transoceanic
Sat 10:33:32 AM 54.0295 -29.2316 267° West 469 540 37,000  Level FlightAware Transoceanic
Sat 10:34:32 AM 54.0215 -29.4534 266° West 469 540 37,000  Level FlightAware Transoceanic
Sat 10:35:32 AM 54.0131 -29.6751 266° West 469 540 37,000  Level FlightAware Transoceanic
Sat 10:36:32 AM 54.0043 -29.8966 269° West 469 540 37,000  Level FlightAware Transoceanic
Sat 10:37:32 AM 53.9916 -30.1014 269° West  Level FlightAware Approximate
Sat 10:38:32 AM 53.9785 -30.3060 268° West  Level FlightAware Approximate
Sat 10:39:32 AM 53.9652 -30.5105 268° West  Level FlightAware Approximate
Sat 10:40:32 AM 53.9515 -30.7149 268° West  Level FlightAware Approximate
Sat 10:41:32 AM 53.9374 -30.9192 268° West  Level FlightAware Approximate
Sat 10:42:32 AM 53.9230 -31.1233 268° West  Level FlightAware Approximate
Sat 10:43:32 AM 53.9066 -31.3269 268° West  Level FlightAware Approximate
Sat 10:44:32 AM 53.8900 -31.5304 268° West  Level FlightAware Approximate
Sat 10:45:32 AM 53.8730 -31.7337 268° West  Level FlightAware Approximate
Sat 10:46:32 AM 53.8556 -31.9368 268° West  Level FlightAware Approximate
Sat 10:47:32 AM 53.8379 -32.1397 267° West  Level FlightAware Approximate
Sat 10:48:32 AM 53.8199 -32.3425 267° West  Level FlightAware Approximate
Sat 10:49:32 AM 53.8015 -32.5451 267° West  Level FlightAware Approximate
Sat 10:50:32 AM 53.7828 -32.7476 267° West  Level FlightAware Approximate
Sat 10:51:32 AM 53.7637 -32.9498 267° West  Level FlightAware Approximate
Sat 10:52:32 AM 53.7443 -33.1519 267° West  Level FlightAware Approximate
Sat 10:53:32 AM 53.7246 -33.3537 267° West  Level FlightAware Approximate
Sat 10:54:32 AM 53.7045 -33.5554 267° West  Level FlightAware Approximate
Sat 10:55:32 AM 53.6841 -33.7569 267° West  Level FlightAware Approximate
Sat 10:56:32 AM 53.6633 -33.9582 267° West  Level FlightAware Approximate
Sat 10:57:32 AM 53.6422 -34.1593 266° West  Level FlightAware Approximate
Sat 10:58:32 AM 53.6208 -34.3602 266° West  Level FlightAware Approximate
Sat 10:59:32 AM 53.5990 -34.5608 266° West  Level FlightAware Approximate
Sat 11:00:32 AM 53.5769 -34.7613 266° West  Level FlightAware Approximate
Sat 11:01:32 AM 53.5545 -34.9616 266° West  Level FlightAware Approximate
Sat 11:02:32 AM 53.5317 -35.1616 266° West  Level FlightAware Approximate
Sat 11:03:32 AM 53.5086 -35.3615 266° West  Level FlightAware Approximate
Sat 11:04:32 AM 53.4852 -35.5611 266° West  Level FlightAware Approximate
Sat 11:05:32 AM 53.4614 -35.7604 266° West  Level FlightAware Approximate
Sat 11:06:32 AM 53.4373 -35.9596 266° West  Level FlightAware Approximate
Sat 11:07:32 AM 53.4129 -36.1586 266° West  Level FlightAware Approximate
Sat 11:08:32 AM 53.3881 -36.3573 266° West  Level FlightAware Approximate
Sat 11:09:32 AM 53.3630 -36.5557 266° West  Level FlightAware Approximate
Sat 11:10:32 AM 53.3376 -36.7540 266° West  Level FlightAware Approximate
Sat 11:11:32 AM 53.3119 -36.9520 265° West  Level FlightAware Approximate
Sat 11:12:32 AM 53.2858 -37.1497 265° West  Level FlightAware Approximate
Sat 11:13:32 AM 53.2594 -37.3473 265° West  Level FlightAware Approximate
Sat 11:14:32 AM 53.2327 -37.5445 265° West  Level FlightAware Approximate
Sat 11:15:32 AM 53.2056 -37.7416 265° West  Level FlightAware Approximate
Sat 11:16:32 AM 53.1782 -37.9383 265° West  Level FlightAware Approximate
Sat 11:17:32 AM 53.1505 -38.1349 265° West  Level FlightAware Approximate
Sat 11:18:32 AM 53.1225 -38.3311 265° West  Level FlightAware Approximate
Sat 11:19:32 AM 53.0942 -38.5271 265° West  Level FlightAware Approximate
Sat 11:20:32 AM 53.0655 -38.7229 265° West  Level FlightAware Approximate
Sat 11:21:32 AM 53.0365 -38.9184 265° West  Level FlightAware Approximate
Sat 11:22:32 AM 53.0072 -39.1136 265° West  Level FlightAware Approximate
Sat 11:23:32 AM 52.9776 -39.3086 265° West  Level FlightAware Approximate
Sat 11:24:32 AM 52.9476 -39.5033 265° West  Level FlightAware Approximate
Sat 11:25:32 AM 52.9173 -39.6977 265° West  Level FlightAware Approximate
Sat 11:26:32 AM 52.8868 -39.8918 265° West  Level FlightAware Approximate
Sat 11:27:32 AM 52.8559 -40.0857 265° West  Level FlightAware Approximate
Sat 11:28:32 AM 52.8246 -40.2793 265° West  Level FlightAware Approximate
Sat 11:29:32 AM 52.7931 -40.4726 265° West  Level FlightAware Approximate
Sat 11:30:32 AM 52.7613 -40.6656 265° West  Level FlightAware Approximate
Sat 11:31:32 AM 52.7291 -40.8584 265° West  Level FlightAware Approximate
Sat 11:32:32 AM 52.6967 -41.0509 265° West  Level FlightAware Approximate
Sat 11:33:32 AM 52.6639 -41.2430 265° West  Level FlightAware Approximate
Sat 11:34:32 AM 52.6308 -41.4349 266° West  Level FlightAware Approximate
Sat 11:35:32 AM 52.5974 -41.6265 266° West  Level FlightAware Approximate
Sat 11:36:32 AM 52.5637 -41.8178 266° West  Level FlightAware Approximate
Sat 11:37:32 AM 52.5297 -42.0088 266° West  Level FlightAware Approximate
Sat 11:38:32 AM 52.4953 -42.1996 266° West  Level FlightAware Approximate
Sat 11:39:32 AM 52.4607 -42.3900 266° West  Level FlightAware Approximate
Sat 11:40:32 AM 52.4258 -42.5801 266° West  Level FlightAware Approximate
Sat 11:41:32 AM 52.3905 -42.7699 266° West  Level FlightAware Approximate
Sat 11:42:32 AM 52.3550 -42.9594 266° West  Level FlightAware Approximate
Sat 11:43:32 AM 52.3192 -43.1486 267° West  Level FlightAware Approximate
Sat 11:44:32 AM 52.2830 -43.3375 267° West  Level FlightAware Approximate
Sat 11:45:32 AM 52.2466 -43.5261 267° West  Level FlightAware Approximate
Sat 11:46:32 AM 52.2098 -43.7143 267° West  Level FlightAware Approximate
Sat 11:47:32 AM 52.1728 -43.9023 268° West  Level FlightAware Approximate
Sat 11:48:32 AM 52.1354 -44.0899 268° West  Level FlightAware Approximate
Sat 11:49:32 AM 52.0978 -44.2773 268° West  Level FlightAware Approximate
Sat 11:50:32 AM 52.0599 -44.4643 268° West  Level FlightAware Approximate
Sat 11:51:32 AM 52.0216 -44.6510 269° West  Level FlightAware Approximate
Sat 11:52:32 AM 51.9831 -44.8373 269° West  Level FlightAware Approximate
Sat 11:53:32 AM 51.9443 -45.0234 270° West  Level FlightAware Approximate
Sat 11:54:32 AM 51.9052 -45.2091 270° West  Level FlightAware Approximate
Sat 11:55:32 AM 51.8658 -45.3945 271° West  Level FlightAware Approximate
Sat 11:56:32 AM 51.8261 -45.5796 271° West  Level FlightAware Approximate
Sat 11:57:32 AM 51.7861 -45.7644 272° West  Level FlightAware Approximate
Sat 11:58:32 AM 51.7458 -45.9488 272° West  Level FlightAware Approximate
Sat 11:59:32 AM 51.7053 -46.1329 273° West  Level FlightAware Approximate
Sat 12:00:32 PM 51.6644 -46.3167 274° West  Level FlightAware Approximate
Sat 12:01:32 PM 51.6233 -46.5001 275° West  Level FlightAware Approximate
Sat 12:02:32 PM 51.5818 -46.6832 276° West  Level FlightAware Approximate
Sat 12:03:32 PM 51.5401 -46.8660 277° West  Level FlightAware Approximate
Sat 12:04:32 PM 51.4981 -47.0484 278° West  Level FlightAware Approximate
Sat 12:05:32 PM 51.4559 -47.2305 279° West  Level FlightAware Approximate
Sat 12:06:32 PM 51.4133 -47.4122 280° West  Level FlightAware Approximate
Sat 12:07:32 PM 51.3705 -47.5936 282° West  Level FlightAware Approximate
Sat 12:08:32 PM 51.3274 -47.7747 283° West  Level FlightAware Approximate
Sat 12:09:32 PM 51.2840 -47.9554 285° West  Level FlightAware Approximate
Sat 12:10:32 PM 51.2403 -48.1358 287° West  Level FlightAware Approximate
Sat 12:11:32 PM 51.1964 -48.3159 289° West  Level FlightAware Approximate
Sat 12:12:32 PM 51.1522 -48.4956 292° West  Level FlightAware Approximate
Sat 12:13:03 PM 51.7667 -51.0667 246° West 510 587 37,000  Level Gander Center
Sat 12:17:03 PM 51.5333 -51.8833 248° West 490 564 37,000  Level Gander Center
Sat 12:18:03 PM 51.4833 -52.0833 240° Southwest 500 575 37,000  Level Gander Center
Sat 12:19:03 PM 51.4167 -52.2667 246° West 500 575 37,000  Level Gander Center
Sat 12:20:03 PM 51.3667 -52.4500 238° Southwest 490 564 37,000  Level Gander Center
Sat 12:21:03 PM 51.2833 -52.6667 242° Southwest 490 564 37,000  Level Gander Center
Sat 12:22:03 PM 51.2167 -52.8667 242° Southwest 490 564 37,000  Level Gander Center
Sat 12:23:03 PM 51.1500 -53.0667 245° Southwest 490 564 37,000  Level Gander Center
Sat 12:24:03 PM 51.1000 -53.2333 242° Southwest 490 564 37,000  Level Gander Center
Sat 12:25:03 PM 51.0333 -53.4333 242° Southwest 490 564 37,000  Level Gander Center
Sat 12:26:03 PM 50.9667 -53.6333 240° Southwest 490 564 37,000  Level Gander Center
Sat 12:27:03 PM 50.9000 -53.8167 240° Southwest 480 552 37,000  Level Gander Center
Sat 12:28:03 PM 50.8333 -54.0000 238° Southwest 480 552 37,000  Level Gander Center
Sat 12:29:03 PM 50.7667 -54.1667 242° Southwest 470 541 37,000 150 Level Gander Center
Sat 12:30:03 PM 50.7000 -54.3667 245° Southwest 480 552 37,300 500 Climbing Gander Center
Sat 12:31:03 PM 50.6500 -54.5333 234° Southwest 490 564 38,000 350 Climbing Gander Center
Sat 12:32:03 PM 50.5667 -54.7167 249° West 490 564 38,000  Level Gander Center
Sat 12:33:03 PM 50.5167 -54.9167 235° Southwest 480 552 38,000  Level Gander Center
Sat 12:34:03 PM 50.4333 -55.1000 245° Southwest 480 552 38,000  Level Gander Center
Sat 12:35:03 PM 50.3833 -55.2667 237° Southwest 480 552 38,000  Level Gander Center
Sat 12:36:03 PM 50.3000 -55.4667 238° Southwest 480 552 38,000  Level Gander Center
Sat 12:37:03 PM 50.2333 -55.6333 240° Southwest 480 552 38,000  Level Gander Center
Sat 12:38:03 PM 50.1667 -55.8167 238° Southwest 480 552 38,000  Level Gander Center
Sat 12:39:03 PM 50.1000 -55.9833 243° Southwest 480 552 38,000  Level Gander Center
Sat 12:40:03 PM 50.0333 -56.1833 241° Southwest 480 552 38,000  Level Gander Center
Sat 12:41:03 PM 49.9667 -56.3667 238° Southwest 480 552 38,000  Level Gander Center
Sat 12:42:03 PM 49.9000 -56.5333 241° Southwest 480 552 38,000  Level Gander Center
Sat 12:43:03 PM 49.8333 -56.7167 238° Southwest 480 552 38,000  Level Gander Center
Sat 12:44:03 PM 49.7667 -56.8833 232° Southwest 470 541 38,000  Level Gander Center
Sat 12:45:03 PM 49.6833 -57.0500 247° West 470 541 38,000  Level Gander Center
Sat 12:46:03 PM 49.6333 -57.2333 229° Southwest 470 541 38,000  Level Gander Center
Sat 12:47:03 PM 49.5500 -57.3833 243° Southwest 470 541 38,000  Level Gander Center
Sat 12:48:03 PM 49.4833 -57.5833 243° Southwest 470 541 38,000  Level Gander Center
Sat 12:49:03 PM 49.4333 -57.7333 235° Southwest 470 541 38,000  Level Gander Center
Sat 12:50:03 PM 49.3500 -57.9167 239° Southwest 470 541 38,000  Level Gander Center
Sat 12:51:03 PM 49.2833 -58.0833 241° Southwest 470 541 38,000  Level Gander Center
Sat 12:52:03 PM 49.2167 -58.2667 236° Southwest 470 541 38,000  Level Gander Center
Sat 12:53:03 PM 49.1500 -58.4167 239° Southwest 470 541 38,000  Level Gander Center
Sat 12:54:03 PM 49.0833 -58.5833 235° Southwest 470 541 38,000  Level Gander Center
Sat 12:55:03 PM 49.0000 -58.7667 236° Southwest 470 541 38,000  Level Gander Center
Sat 12:56:03 PM 48.9333 -58.9167 241° Southwest 470 541 38,000  Level Gander Center
Sat 12:57:03 PM 48.8667 -59.1000 236° Southwest 470 541 38,000  Level Gander Center
Sat 12:58:03 PM 48.8000 -59.2500 235° Southwest 460 529 38,000  Level Gander Center
Sat 12:59:03 PM 48.7167 -59.4333 236° Southwest 460 529 38,000  Level Gander Center
Sat 01:00:03 PM 48.6500 -59.5833 236° Southwest 470 541 38,000  Level Gander Center
Sat 01:01:03 PM 48.5833 -59.7333 236° Southwest 470 541 38,000  Level Gander Center
Sat 01:02:03 PM 48.5000 -59.9167 243° Southwest 470 541 38,000  Level Gander Center
Sat 01:03:03 PM 48.4500 -60.0667 241° Southwest 470 541 38,000  Level Gander Center
Sat 01:04:03 PM 48.3833 -60.2500 230° Southwest 460 529 38,000  Level Gander Center
Sat 01:05:03 PM 48.3000 -60.4000 236° Southwest 460 529 38,000  Level Gander Center
Sat 01:06:03 PM 48.2333 -60.5500 236° Southwest 460 529 38,000  Level Gander Center
Sat 01:07:03 PM 48.1667 -60.7000 236° Southwest 460 529 38,000  Level Gander Center
Sat 01:08:03 PM 48.0833 -60.8833 236° Southwest 460 529 38,000  Level Gander Center
Sat 01:09:03 PM 48.0167 -61.0333 233° Southwest 460 529 38,000  Level Gander Center
Sat 01:10:03 PM 47.9333 -61.2000 242° Southwest 470 541 38,000  Level Gander Center
Sat 01:11:03 PM 47.8667 -61.3833 230° Southwest 480 552 38,000  Level Gander Center
Sat 01:12:03 PM 47.7833 -61.5333 239° Southwest 470 541 38,000  Level Gander Center
Sat 01:13:03 PM 47.7167 -61.7000 237° Southwest 470 541 38,000  Level Gander Center
Sat 01:14:03 PM 47.6500 -61.8500 233° Southwest 470 541 38,000  Level Gander Center
Sat 01:15:03 PM 47.5667 -62.0167 236° Southwest 480 552 38,000  Level Gander Center
Sat 01:16:12 PM 47.4833 -62.2000 231° Southwest 470 541 38,000  Level Moncton Center
Sat 01:17:12 PM 47.4000 -62.3500 231° Southwest 470 541 38,000  Level Moncton Center
Sat 01:18:12 PM 47.3167 -62.5000 237° Southwest 470 541 38,000  Level Moncton Center
Sat 01:19:12 PM 47.2500 -62.6500 234° Southwest 470 541 38,000  Level Moncton Center
Sat 01:20:12 PM 47.1667 -62.8167 237° Southwest 470 541 38,000  Level Moncton Center
Sat 01:21:12 PM 47.1000 -62.9667 231° Southwest 460 529 38,000  Level Moncton Center
Sat 01:22:12 PM 47.0167 -63.1167 231° Southwest 470 541 38,000  Level Moncton Center
Sat 01:23:12 PM 46.9333 -63.2667 234° Southwest 470 541 38,000  Level Moncton Center
Sat 01:24:03 PM 46.8667 -63.4000 240° Southwest 470 541 38,000  Level Gander Center
Sat 01:25:03 PM 46.8000 -63.5667 231° Southwest 470 541 38,000  Level Gander Center
Sat 01:26:03 PM 46.7167 -63.7167 237° Southwest 470 541 38,000  Level Gander Center
Sat 01:27:03 PM 46.6500 -63.8667 240° Southwest 460 529 38,000  Level Gander Center
Sat 01:28:03 PM 46.5833 -64.0333 223° Southwest 460 529 38,000  Level Gander Center
Sat 01:29:03 PM 46.4833 -64.1667 242° Southwest 460 529 38,000  Level Gander Center
Sat 01:30:12 PM 46.4167 -64.3500 231° Southwest 460 529 38,000  Level Moncton Center
Sat 01:31:12 PM 46.3333 -64.5000 234° Southwest 470 541 38,000  Level Moncton Center
Sat 01:32:12 PM 46.2667 -64.6333 234° Southwest 470 541 38,000  Level Moncton Center
Sat 01:33:12 PM 46.1833 -64.8000 231° Southwest 470 541 38,000  Level Moncton Center
Sat 01:34:12 PM 46.1000 -64.9500 226° Southwest 470 541 38,000  Level Moncton Center
Sat 01:35:12 PM 46.0000 -65.1000 234° Southwest 470 541 38,000  Level Moncton Center
Sat 01:36:12 PM 45.9333 -65.2333 234° Southwest 470 541 38,000  Level Moncton Center
Sat 01:37:12 PM 45.8500 -65.4000 238° Southwest 470 541 38,000  Level Moncton Center
Sat 01:38:12 PM 45.7833 -65.5500 228° Southwest 470 541 38,000  Level Moncton Center
Sat 01:39:12 PM 45.7000 -65.6833 232° Southwest 470 541 38,000  Level Moncton Center
Sat 01:40:12 PM 45.6167 -65.8333 235° Southwest 470 541 38,000  Level Moncton Center
Sat 01:41:12 PM 45.5500 -65.9667 235° Southwest 470 541 38,000  Level Moncton Center
Sat 01:42:12 PM 45.4667 -66.1333 227° Southwest 470 541 38,000  Level Moncton Center
Sat 01:43:12 PM 45.3667 -66.2833 235° Southwest 470 541 38,000  Level Moncton Center
Sat 01:44:12 PM 45.2833 -66.4500 235° Southwest 470 541 38,000  Level Moncton Center
Sat 01:45:12 PM 45.2167 -66.5833 228° Southwest 470 541 38,000  Level Moncton Center
Sat 01:46:12 PM 45.1333 -66.7167 238° Southwest 460 529 38,000  Level Moncton Center
Sat 01:47:12 PM 45.0667 -66.8667 229° Southwest 460 529 38,000  Level Moncton Center
Sat 01:48:12 PM 44.9833 -67.0000 229° Southwest 460 529 38,000  Level Moncton Center
Sat 01:49:12 PM 44.9000 -67.1333 241° Southwest 450 518 38,000  Level Moncton Center
Sat 01:50:12 PM 44.8333 -67.3000 238° Southwest 450 518 38,000  Level Moncton Center
Sat 01:51:16 PM 44.7756 -67.4297 231° Southwest 452 520 38,000  Level Boston Center
Sat 01:52:16 PM 44.6961 -67.5681 234° Southwest 458 527 38,000  Level Boston Center
Sat 01:53:16 PM 44.6208 -67.7144 228° Southwest 463 533 38,000  Level Boston Center
Sat 01:54:12 PM 44.5333 -67.8500 232° Southwest 450 518 38,000  Level Moncton Center
Sat 01:55:12 PM 44.4500 -68.0000 241° Southwest 450 518 38,000  Level Moncton Center
Sat 01:56:16 PM 44.3975 -68.1306 228° Southwest 453 521 38,000  Level Boston Center
Sat 01:57:12 PM 44.3000 -68.2833 235° Southwest 450 518 38,000  Level Moncton Center
Sat 01:58:12 PM 44.2333 -68.4167 227° Southwest 450 518 38,000  Level Moncton Center
Sat 01:59:12 PM 44.1333 -68.5667 242° Southwest 450 518 38,000  Level Moncton Center
Sat 02:00:12 PM 44.0833 -68.7000 229° Southwest 450 518 38,000  Level Moncton Center
Sat 02:01:12 PM 44.0000 -68.8333 229° Southwest 460 529 38,000  Level Moncton Center
Sat 02:02:12 PM 43.9167 -68.9667 235° Southwest 460 529 38,000  Level Moncton Center
Sat 02:03:12 PM 43.8500 -69.1000 236° Southwest 450 518 38,000  Level Moncton Center
Sat 02:04:16 PM 43.7753 -69.2539 231° Southwest 453 521 38,000  Level Boston Center
Sat 02:05:16 PM 43.6978 -69.3872 232° Southwest 453 521 38,000  Level Boston Center
Sat 02:06:16 PM 43.6200 -69.5261 232° Southwest 453 521 38,000  Level Boston Center
Sat 02:07:16 PM 43.5422 -69.6644 232° Southwest 453 521 38,000  Level Boston Center
Sat 02:08:16 PM 43.4642 -69.8025 231° Southwest 458 527 38,000  Level Boston Center
Sat 02:09:16 PM 43.3839 -69.9403 224° Southwest 458 527 38,000  Level Boston Center
Sat 02:10:16 PM 43.2925 -70.0611 213° Southwest 458 527 38,000  Level Boston Center
Sat 02:11:16 PM 43.1800 -70.1622 214° Southwest 466 536 38,000  Level Boston Center
Sat 02:12:16 PM 43.0694 -70.2631 213° Southwest 483 556 38,000  Level Boston Center
Sat 02:13:16 PM 42.9567 -70.3633 213° Southwest 483 556 38,000  Level Boston Center
Sat 02:14:16 PM 42.8439 -70.4636 213° Southwest 488 562 38,000  Level Boston Center
Sat 02:15:16 PM 42.7308 -70.5633 214° Southwest 493 567 38,000  Level Boston Center
Sat 02:16:16 PM 42.6178 -70.6653 213° Southwest 493 567 38,000  Level Boston Center
Sat 02:17:16 PM 42.5172 -70.7528 214° Southwest 486 559 38,000  Level Boston Center
Sat 02:18:16 PM 42.3917 -70.8658 212° Southwest 494 568 38,000  Level Boston Center
Sat 02:19:16 PM 42.2783 -70.9614 213° Southwest 499 574 38,000  Level Boston Center
Sat 02:20:16 PM 42.1647 -71.0592 212° Southwest 494 568 38,000  Level Boston Center
Sat 02:21:16 PM 42.0492 -71.1567 212° Southwest 494 568 38,000  Level Boston Center
Sat 02:22:16 PM 41.9356 -71.2539 213° Southwest 489 563 38,000 -200 Level Boston Center
Sat 02:23:16 PM 41.8261 -71.3508 212° Southwest 489 563 37,600 -1,450 Descending Boston Center
Sat 02:24:16 PM 41.7144 -71.4444 220° Southwest 489 563 35,100 -2,700 Descending Boston Center
Sat 02:25:16 PM 41.6153 -71.5544 219° Southwest 479 551 32,200 -2,650 Descending Boston Center
Sat 02:26:16 PM 41.5286 -71.6497 220° Southwest 468 539 29,800 -2,350 Descending Boston Center
Sat 02:27:16 PM 41.4356 -71.7533 219° Southwest 452 520 27,500 -2,250 Descending Boston Center
Sat 02:28:16 PM 41.3422 -71.8539 219° Southwest 445 512 25,300 -1,900 Descending Boston Center
Sat 02:29:16 PM 41.2489 -71.9542 222° Southwest 440 506 23,700 -1,850 Descending Boston Center
Sat 02:30:16 PM 41.1619 -72.0569 241° Southwest 430 495 21,600 -1,950 Descending Boston Center
Sat 02:31:16 PM 41.1081 -72.1867 250° West 394 453 19,800 -1,750 Descending Boston Center
Sat 02:32:16 PM 41.0728 -72.3133 246° West 379 436 18,100 -1,650 Descending Boston Center
Sat 02:33:16 PM 41.0311 -72.4400 231° Southwest 379 436 16,500 -1,650 Descending Boston Center
Sat 02:34:16 PM 40.9667 -72.5444 234° Southwest 374 430 14,800 -1,600 Descending Boston Center
Sat 02:35:16 PM 40.9103 -72.6461 237° Southwest 369 425 13,300 -1,300 Descending Boston Center
Sat 02:36:16 PM 40.8667 -72.7333 232° Southwest 300 345 12,200 -650 Descending New York TRACON
Sat 02:37:16 PM 40.8167 -72.8167 232° Southwest 289 333 12,000 -550 Descending New York TRACON
Sat 02:38:16 PM 40.7667 -72.9000 232° Southwest 287 330 11,100 -1,100 Descending New York TRACON
Sat 02:39:16 PM 40.7167 -72.9833 225° Southwest 282 325 9,800 -1,368 Descending New York TRACON
Sat 02:40:10 PM 40.6667 -73.0500 232° Southwest 282 325 8,500 -1,263 Descending New York TRACON
Sat 02:41:10 PM 40.6167 -73.1333 270° West 276 318 7,400 -750 Descending New York TRACON
Sat 02:42:10 PM 40.6167 -73.2167 298° West 267 307 7,000 -200 Descending New York TRACON
Sat 02:43:10 PM 40.6500 -73.3000 246° West 265 305 7,000 -38 Level New York TRACON
Sat 02:44:48 PM 40.6002 -73.4451 217° Southwest 266 306 6,900 -56 Descending FlightAware ADS-B
Sat 02:44:57 PM 40.5905 -73.4548 214° Southwest 274 315 6,900  Level FlightAware ADS-B
Sat 02:45:13 PM 40.5740 -73.4693 213° Southwest 276 318 6,900  Level FlightAware ADS-B
Sat 02:45:28 PM 40.5574 -73.4835 213° Southwest 277 319 6,900  Level FlightAware ADS-B
Sat 02:45:52 PM 40.5320 -73.5056 214° Southwest 278 320 6,900 -615 Level FlightAware ADS-B
Sat 02:46:07 PM 40.5159 -73.5197 214° Southwest 279 321 6,500 -1,273 Descending FlightAware ADS-B
Sat 02:46:25 PM 40.4967 -73.5366 214° Southwest 275 316 6,200 -1,059 Descending FlightAware ADS-B
Sat 02:46:41 PM 40.4791 -73.5520 214° Southwest 274 315 5,900 -1,125 Descending FlightAware ADS-B
Sat 02:46:57 PM 40.4630 -73.5661 214° Southwest 272 313 5,600 -1,059 Descending FlightAware ADS-B
Sat 02:47:15 PM 40.4447 -73.5824 214° Southwest 268 308 5,300 -1,029 Descending FlightAware ADS-B
Sat 02:47:32 PM 40.4267 -73.5983 215° Southwest 264 304 5,000 -727 Descending FlightAware ADS-B
Sat 02:47:48 PM 40.4116 -73.6120 215° Southwest 259 298 4,900 -833 Descending FlightAware ADS-B
Sat 02:48:08 PM 40.3912 -73.6307 216° Southwest 260 299 4,500 -1,143 Descending FlightAware ADS-B
Sat 02:48:30 PM 40.3702 -73.6505 217° Southwest 260 299 4,100 -750 Descending FlightAware ADS-B
Sat 02:48:48 PM 40.3522 -73.6680 251° West 260 299 4,000 -500 Descending FlightAware ADS-B
Sat 02:49:54 PM 40.3308 -73.7497 296° West 239 275 3,400 -545 Descending FlightAware ADS-B
Sat 02:50:16 PM 40.3412 -73.7782 295° West 242 278 3,200 -571 Descending FlightAware ADS-B
Sat 02:50:36 PM 40.3506 -73.8044 296° West 241 277 3,000 -649 Descending FlightAware ADS-B
Sat 02:51:30 PM 40.3769 -73.8753 296° West 236 272 2,400 -667 Descending FlightAware ADS-B

Login

Don't have an account? Register now (free) for customized features, flight alerts, and more!